Time;durP1;ratioP1;P1;durP2;ratioP2;P2;SDS_P1;SDS_P2;PMS_P1;PMS_P2;Temp;Humidity;BMP_temperature;BMP_pressure;BME280_temperature;BME280_humidity;BME280_pressure;Samples;Min_cycle;Max_cycle;Signal;HPM_P1;HPM_P2
2022/03/02 00:01:59;;;;;;;10.82;2.10;;;;;;;;;;4958239;28;20059;-66
2022/03/02 00:04:30;;;;;;;6.43;2.67;;;;;;;;;;4952929;28;20059;-66
2022/03/02 00:07:03;;;;;;;6.70;2.20;;;;;;;;;;4936979;28;20047;-68
2022/03/02 00:09:36;;;;;;;6.22;2.30;;;;;;;;;;4952918;28;20062;-68
2022/03/02 00:12:07;;;;;;;4.55;1.83;;;;;;;;;;4952913;28;20519;-69
2022/03/02 00:14:39;;;;;;;8.15;2.25;;;;;;;;;;4952700;28;20062;-68
2022/03/02 00:17:10;;;;;;;4.70;1.80;;;;;;;;;;4914241;29;20052;-68
2022/03/02 00:19:45;;;;;;;6.97;1.83;;;;;;;;;;4914569;29;20063;-68
2022/03/02 00:22:15;;;;;;;8.48;2.30;;;;;;;;;;4914440;29;20079;-68
2022/03/02 00:24:50;;;;;;;6.93;2.13;;;;;;;;;;4914012;29;20063;-68
2022/03/02 00:27:23;;;;;;;6.95;1.98;;;;;;;;;;4883387;29;20052;-66
2022/03/02 00:29:54;;;;;;;5.40;2.20;;;;;;;;;;4914210;29;20435;-68
2022/03/02 00:32:25;;;;;;;7.15;2.33;;;;;;;;;;4914476;29;20060;-68
2022/03/02 00:34:56;;;;;;;;;;;;;;;;;;4883546;29;20432;-69
2022/03/02 00:37:27;;;;;;;10.20;2.47;;;;;;;;;;4953482;28;19937;-68
2022/03/02 00:40:00;;;;;;;8.27;2.70;;;;;;;;;;4971592;28;20066;-69
2022/03/02 00:42:32;;;;;;;5.35;3.03;;;;;;;;;;4971389;28;20127;-65
2022/03/02 00:45:05;;;;;;;6.45;2.50;;;;;;;;;;4971389;28;20070;-68
2022/03/02 00:47:36;;;;;;;7.38;3.20;;;;;;;;;;4932537;29;20060;-67
2022/03/02 00:50:09;;;;;;;6.13;2.80;;;;;;;;;;4901516;29;20052;-68
2022/03/02 00:52:41;;;;;;;6.00;2.50;;;;;;;;;;4932952;29;20107;-66
2022/03/02 00:55:15;;;;;;;7.53;3.17;;;;;;;;;;4920392;29;20060;-69
2022/03/02 00:57:46;;;;;;;8.10;3.22;;;;;;;;;;4913789;29;20056;-69
2022/03/02 01:00:18;;;;;;;7.15;3.08;;;;;;;;;;4913826;29;20067;-68
2022/03/02 01:02:49;;;;;;;12.15;2.72;;;;;;;;;;4894365;29;20057;-67
2022/03/02 01:05:24;;;;;;;9.50;2.90;;;;;;;;;;4894997;29;20059;-67
2022/03/02 01:07:55;;;;;;;6.63;2.85;;;;;;;;;;4894049;29;20045;-67
2022/03/02 01:10:26;;;;;;;6.10;2.92;;;;;;;;;;4879610;29;20060;-69
2022/03/02 01:12:56;;;;;;;16.30;2.97;;;;;;;;;;4894832;29;20061;-69
2022/03/02 01:15:26;;;;;;;8.32;2.90;;;;;;;;;;4906832;29;20083;-68
2022/03/02 01:18:00;;;;;;;7.03;3.13;;;;;;;;;;4913443;29;20060;-69
2022/03/02 01:20:29;;;;;;;;;;;;;;;;;;4913788;29;20091;-68
2022/03/02 01:23:06;;;;;;;6.93;2.72;;;;;;;;;;4913459;29;20386;-68
2022/03/02 01:25:36;;;;;;;9.20;4.03;;;;;;;;;;4895474;29;20046;-68
2022/03/02 01:28:11;;;;;;;7.78;3.50;;;;;;;;;;4897342;29;20052;-68
2022/03/02 01:30:42;;;;;;;10.32;4.38;;;;;;;;;;4881862;29;20056;-68
2022/03/02 01:33:13;;;;;;;8.15;3.38;;;;;;;;;;4897705;29;20060;-68
2022/03/02 01:35:44;;;;;;;10.38;3.58;;;;;;;;;;4912876;29;20067;-68
2022/03/02 01:38:15;;;;;;;7.47;3.33;;;;;;;;;;4924545;29;20099;-67
2022/03/02 01:40:47;;;;;;;9.80;3.75;;;;;;;;;;4917259;28;20061;-68
2022/03/02 01:43:19;;;;;;;12.43;3.45;;;;;;;;;;4970440;28;20046;-68
2022/03/02 01:45:49;;;;;;;10.43;3.42;;;;;;;;;;4970332;28;20062;-68
2022/03/02 01:48:21;;;;;;;6.82;3.65;;;;;;;;;;4970305;28;20050;-67
2022/03/02 01:50:52;;;;;;;10.75;3.88;;;;;;;;;;4916480;29;20500;-67
2022/03/02 01:53:24;;;;;;;13.30;3.78;;;;;;;;;;4900335;29;20056;-69
2022/03/02 01:55:56;;;;;;;8.07;4.00;;;;;;;;;;4931684;29;20063;-68
2022/03/02 01:58:30;;;;;;;14.10;4.25;;;;;;;;;;4931626;29;20067;-69
2022/03/02 02:01:04;;;;;;;10.82;4.07;;;;;;;;;;4931461;29;20052;-68
2022/03/02 02:03:35;;;;;;;21.52;5.88;;;;;;;;;;4915968;29;20519;-68
2022/03/02 02:06:06;;;;;;;14.27;6.40;;;;;;;;;;4948033;28;20051;-67
2022/03/02 02:08:38;;;;;;;16.75;7.25;;;;;;;;;;4954287;28;20061;-67
2022/03/02 02:11:12;;;;;;;17.40;6.07;;;;;;;;;;4938021;28;20058;-65
2022/03/02 02:13:43;;;;;;;18.05;6.40;;;;;;;;;;4937946;28;20062;-66
2022/03/02 02:16:14;;;;;;;15.13;6.43;;;;;;;;;;4954149;28;20054;-66
2022/03/02 02:18:45;;;;;;;15.63;5.80;;;;;;;;;;4969642;28;20500;-66
2022/03/02 02:21:16;;;;;;;17.70;5.10;;;;;;;;;;4937705;28;21148;-65
2022/03/02 02:23:50;;;;;;;12.25;4.43;;;;;;;;;;4969820;28;20054;-66
2022/03/02 02:26:21;;;;;;;13.52;3.78;;;;;;;;;;4969749;28;20192;-66
2022/03/02 02:28:53;;;;;;;9.55;3.50;;;;;;;;;;4943281;28;20051;-66
2022/03/02 02:31:25;;;;;;;7.20;3.22;;;;;;;;;;4873006;28;20062;-65
2022/03/02 02:33:57;;;;;;;16.25;4.00;;;;;;;;;;4950510;28;20563;-67
2022/03/02 02:36:28;;;;;;;7.63;3.72;;;;;;;;;;4950589;28;20054;-67
2022/03/02 02:39:01;;;;;;;12.05;3.92;;;;;;;;;;4962356;28;20099;-66
2022/03/02 02:41:33;;;;;;;11.15;3.85;;;;;;;;;;4969738;28;20062;-66
2022/03/02 02:44:04;;;;;;;;;;;;;;;;;;4970295;28;20055;-66
2022/03/02 02:46:34;;;;;;;10.27;4.07;;;;;;;;;;4969588;28;19929;-67
2022/03/02 02:49:05;;;;;;;11.90;4.28;;;;;;;;;;4972913;28;20050;-67
2022/03/02 02:51:41;;;;;;;12.52;4.20;;;;;;;;;;4973769;28;20043;-66
2022/03/02 02:54:14;;;;;;;10.40;4.07;;;;;;;;;;4941293;28;20087;-66
2022/03/02 02:56:47;;;;;;;9.30;4.15;;;;;;;;;;4942158;28;20063;-66
2022/03/02 02:59:17;;;;;;;7.80;3.83;;;;;;;;;;4973536;28;20419;-66
2022/03/02 03:01:49;;;;;;;7.78;3.67;;;;;;;;;;4973694;28;20061;-67
2022/03/02 03:04:22;;;;;;;13.48;4.10;;;;;;;;;;4973454;28;20070;-67
2022/03/02 03:06:58;;;;;;;10.40;4.40;;;;;;;;;;5002228;28;20429;-67
2022/03/02 03:09:28;;;;;;;10.30;3.58;;;;;;;;;;5014600;28;20497;-68
2022/03/02 03:12:01;;;;;;;11.13;3.25;;;;;;;;;;5014921;28;20487;-68
2022/03/02 03:14:32;;;;;;;6.78;3.28;;;;;;;;;;5014910;28;20121;-69
2022/03/02 03:17:03;;;;;;;7.70;3.20;;;;;;;;;;4964101;28;20061;-69
2022/03/02 03:19:36;;;;;;;10.32;3.00;;;;;;;;;;5014456;28;20049;-69
2022/03/02 03:22:08;;;;;;;8.82;3.70;;;;;;;;;;4959871;28;20062;-69
2022/03/02 03:24:40;;;;;;;7.68;3.95;;;;;;;;;;4992391;28;20069;-69
2022/03/02 03:27:12;;;;;;;11.60;3.80;;;;;;;;;;4953194;28;20062;-69
2022/03/02 03:29:43;;;;;;;10.73;4.05;;;;;;;;;;4921407;28;20500;-69
2022/03/02 03:32:14;;;;;;;9.57;4.07;;;;;;;;;;4953511;28;20059;-68
2022/03/02 03:34:47;;;;;;;13.05;4.43;;;;;;;;;;4900107;29;20063;-68
2022/03/02 03:37:17;;;;;;;8.57;4.60;;;;;;;;;;4900013;29;20059;-68
2022/03/02 03:39:47;;;;;;;11.40;5.07;;;;;;;;;;4915055;29;20060;-69
2022/03/02 03:42:17;;;;;;;8.10;3.80;;;;;;;;;;4915297;29;20048;-67
2022/03/02 03:44:49;;;;;;;9.85;4.10;;;;;;;;;;4915174;29;20064;-66
2022/03/02 03:47:20;;;;;;;9.15;4.15;;;;;;;;;;4915103;29;20067;-67
2022/03/02 03:49:51;;;;;;;12.35;4.47;;;;;;;;;;4899956;29;20071;-67
2022/03/02 03:52:21;;;;;;;10.23;4.80;;;;;;;;;;4915230;29;20071;-67
2022/03/02 03:54:52;;;;;;;9.63;4.40;;;;;;;;;;4914884;29;20175;-68
2022/03/02 03:57:25;;;;;;;9.93;4.78;;;;;;;;;;4915085;29;20048;-67
2022/03/02 03:59:55;;;;;;;8.55;4.63;;;;;;;;;;4925409;29;20055;-65
2022/03/02 04:02:25;;;;;;;8.63;5.03;;;;;;;;;;4902556;29;20056;-66
2022/03/02 04:04:56;;;;;;;16.45;5.20;;;;;;;;;;4960360;28;21591;-66
2022/03/02 04:07:32;;;;;;;9.00;4.93;;;;;;;;;;4980670;28;20053;-66
2022/03/02 04:10:09;;;;;;;8.25;4.65;;;;;;;;;;5013627;28;20052;-66
2022/03/02 04:12:40;;;;;;;11.98;5.10;;;;;;;;;;5013796;28;20057;-67
2022/03/02 04:15:11;;;;;;;9.00;5.13;;;;;;;;;;5012376;28;20050;-66
2022/03/02 04:17:46;;;;;;;13.75;5.40;;;;;;;;;;5013348;28;20046;-67
2022/03/02 04:20:20;;;;;;;12.55;5.25;;;;;;;;;;5013263;28;20049;-66
2022/03/02 04:22:51;;;;;;;14.63;5.03;;;;;;;;;;4991491;28;20062;-66
2022/03/02 04:25:21;;;;;;;11.02;5.78;;;;;;;;;;4974967;28;20057;-67
2022/03/02 04:27:53;;;;;;;11.32;4.90;;;;;;;;;;4991323;28;20061;-67
2022/03/02 04:30:27;;;;;;;11.77;5.53;;;;;;;;;;4959337;28;20054;-67
2022/03/02 04:33:01;;;;;;;10.57;4.88;;;;;;;;;;4991310;28;20046;-66
2022/03/02 04:35:32;;;;;;;11.65;6.10;;;;;;;;;;4991533;28;20514;-67
2022/03/02 04:38:04;;;;;;;10.32;5.20;;;;;;;;;;4990930;28;20062;-68
2022/03/02 04:40:36;;;;;;;9.95;4.85;;;;;;;;;;4990941;28;20058;-67
2022/03/02 04:43:07;;;;;;;8.88;4.80;;;;;;;;;;4991149;28;20054;-68
2022/03/02 04:45:38;;;;;;;11.85;4.80;;;;;;;;;;4942651;28;20058;-68
2022/03/02 04:48:10;;;;;;;9.68;5.15;;;;;;;;;;4990974;28;20066;-68
2022/03/02 04:50:40;;;;;;;11.57;4.13;;;;;;;;;;4990913;28;20042;-68
2022/03/02 04:53:16;;;;;;;12.20;4.55;;;;;;;;;;4990983;28;20068;-68
2022/03/02 04:55:46;;;;;;;10.07;4.13;;;;;;;;;;4990722;28;20399;-68
2022/03/02 04:58:17;;;;;;;14.10;3.92;;;;;;;;;;4971063;28;20085;-69
2022/03/02 05:00:53;;;;;;;11.55;4.35;;;;;;;;;;4983865;28;20066;-68
2022/03/02 05:03:24;;;;;;;14.57;4.88;;;;;;;;;;4990574;28;20055;-67
2022/03/02 05:05:54;;;;;;;11.68;4.45;;;;;;;;;;4974322;28;20046;-68
2022/03/02 05:08:26;;;;;;;9.90;4.65;;;;;;;;;;4990516;28;20054;-68
2022/03/02 05:10:59;;;;;;;7.95;3.95;;;;;;;;;;4989491;28;20054;-66
2022/03/02 05:13:32;;;;;;;12.25;4.43;;;;;;;;;;4990467;28;20073;-67
2022/03/02 05:16:02;;;;;;;17.85;4.57;;;;;;;;;;4926068;28;20866;-68
2022/03/02 05:18:33;;;;;;;13.27;4.55;;;;;;;;;;4951510;28;20063;-68
2022/03/02 05:21:05;;;;;;;8.68;4.20;;;;;;;;;;4936124;28;20066;-68
2022/03/02 05:23:36;;;;;;;;;;;;;;;;;;4952100;28;20436;-68
2022/03/02 05:26:06;;;;;;;8.48;4.13;;;;;;;;;;4951641;28;19922;-67
2022/03/02 05:28:36;;;;;;;14.45;4.68;;;;;;;;;;4935304;28;20070;-68
2022/03/02 05:31:10;;;;;;;7.25;4.20;;;;;;;;;;4951486;28;20051;-67
2022/03/02 05:33:47;;;;;;;9.50;4.32;;;;;;;;;;4995444;27;4365454;-69
2022/03/02 05:36:19;;;;;;;9.32;4.30;;;;;;;;;;5094094;28;20055;-69
2022/03/02 05:38:49;;;;;;;10.13;4.13;;;;;;;;;;5085402;28;20045;-69
2022/03/02 05:41:21;;;;;;;11.68;4.30;;;;;;;;;;5045503;28;20045;-70
2022/03/02 05:43:53;;;;;;;9.93;4.05;;;;;;;;;;5029007;28;20061;-66
2022/03/02 05:46:23;;;;;;;14.27;4.15;;;;;;;;;;5045635;28;20050;-69
2022/03/02 05:48:54;;;;;;;9.63;4.15;;;;;;;;;;5029742;28;20045;-70
2022/03/02 05:51:28;;;;;;;;;;;;;;;;;;5046011;28;20053;-69
2022/03/02 05:53:59;;;;;;;13.45;3.65;;;;;;;;;;5029070;28;19944;-70
2022/03/02 05:56:30;;;;;;;11.20;4.53;;;;;;;;;;5045486;28;20061;-70
2022/03/02 05:59:00;;;;;;;7.20;3.63;;;;;;;;;;5045360;28;20421;-69
2022/03/02 06:01:32;;;;;;;9.23;4.20;;;;;;;;;;5028763;28;20061;-71
2022/03/02 06:04:05;;;;;;;8.60;3.90;;;;;;;;;;5045522;28;20065;-71
2022/03/02 06:06:42;;;;;;;14.80;4.53;;;;;;;;;;5045391;28;20068;-70
2022/03/02 06:09:13;;;;;;;9.13;4.25;;;;;;;;;;5045157;28;20084;-70
2022/03/02 06:11:44;;;;;;;8.60;4.05;;;;;;;;;;4996385;28;20057;-70
2022/03/02 06:14:15;;;;;;;7.95;3.88;;;;;;;;;;5044750;28;20425;-70
2022/03/02 06:16:47;;;;;;;11.25;4.20;;;;;;;;;;5029589;28;20057;-70
2022/03/02 06:19:17;;;;;;;8.65;3.90;;;;;;;;;;5112575;28;20415;-70
2022/03/02 06:24:47;;;;;;;12.02;4.30;;;;;;;;;;5128114;28;20039;-70
2022/03/02 06:27:20;;;;;;;11.18;4.45;;;;;;;;;;5084402;28;20059;-70
2022/03/02 06:29:50;;;;;;;10.35;4.03;;;;;;;;;;5051735;28;20466;-70
2022/03/02 06:32:24;;;;;;;10.45;4.82;;;;;;;;;;5084409;28;20048;-70
2022/03/02 06:34:59;;;;;;;10.75;4.13;;;;;;;;;;5085055;28;20044;-70
2022/03/02 06:37:34;;;;;;;13.63;3.90;;;;;;;;;;5084687;28;20497;-69
2022/03/02 06:40:08;;;;;;;13.25;4.25;;;;;;;;;;5084600;28;20412;-70
2022/03/02 06:42:46;;;;;;;7.97;4.53;;;;;;;;;;5034338;28;20056;-69
2022/03/02 06:45:28;;;;;;;9.27;4.00;;;;;;;;;;5070537;28;20048;-69
2022/03/02 06:48:11;;;;;;;11.65;4.35;;;;;;;;;;5070899;28;20048;-68
2022/03/02 06:50:44;;;;;;;7.60;4.13;;;;;;;;;;5071101;28;20479;-69
2022/03/02 06:53:23;;;;;;;13.88;4.25;;;;;;;;;;5030593;28;20052;-69
2022/03/02 06:55:55;;;;;;;9.15;4.03;;;;;;;;;;5031205;28;20052;-70
2022/03/02 06:58:31;;;;;;;13.95;3.90;;;;;;;;;;4981878;28;20045;-70
2022/03/02 07:01:03;;;;;;;13.38;4.15;;;;;;;;;;4966932;28;20097;-70
2022/03/02 07:03:50;;;;;;;13.73;3.95;;;;;;;;;;4981781;28;20065;-69
2022/03/02 07:06:25;;;;;;;8.00;3.92;;;;;;;;;;5037631;28;20160;-67
2022/03/02 07:08:57;;;;;;;11.82;4.20;;;;;;;;;;5037600;28;20049;-69
2022/03/02 07:11:27;;;;;;;10.07;3.95;;;;;;;;;;5050445;28;20057;-69
2022/03/02 07:14:02;;;;;;;10.65;4.20;;;;;;;;;;5050599;28;20060;-69
2022/03/02 07:16:35;;;;;;;8.88;4.13;;;;;;;;;;4994246;28;20060;-69
2022/03/02 07:19:05;;;;;;;11.73;4.38;;;;;;;;;;5010756;28;20544;-69
2022/03/02 07:21:39;;;;;;;9.45;4.47;;;;;;;;;;4930709;28;20054;-69
2022/03/02 07:24:17;;;;;;;11.50;4.30;;;;;;;;;;5010648;28;20062;-69
2022/03/02 07:26:58;;;;;;;9.07;4.40;;;;;;;;;;5010266;28;20066;-67
2022/03/02 07:29:31;;;;;;;18.50;3.97;;;;;;;;;;5010739;28;20066;-69
2022/03/02 07:32:04;;;;;;;12.15;4.43;;;;;;;;;;5029294;28;20516;-70
2022/03/02 07:34:42;;;;;;;11.82;4.00;;;;;;;;;;5014884;28;20425;-69
2022/03/02 07:37:16;;;;;;;6.85;3.83;;;;;;;;;;5029984;28;20080;-70
2022/03/02 07:39:48;;;;;;;;;;;;;;;;;;5030602;28;20045;-69
2022/03/02 07:42:20;;;;;;;7.20;2.85;;;;;;;;;;4981064;28;19965;-67
2022/03/02 07:44:50;;;;;;;8.57;3.08;;;;;;;;;;5029968;28;20417;-70
2022/03/02 07:47:24;;;;;;;8.90;3.75;;;;;;;;;;4997028;28;20053;-70
2022/03/02 07:49:57;;;;;;;13.63;3.90;;;;;;;;;;5046525;28;20053;-69
2022/03/02 07:52:29;;;;;;;8.57;3.72;;;;;;;;;;5049918;28;20057;-69
2022/03/02 07:55:07;;;;;;;8.80;3.80;;;;;;;;;;5033066;28;20053;-69
2022/03/02 07:57:40;;;;;;;8.60;3.58;;;;;;;;;;5034083;28;20409;-68
2022/03/02 08:00:13;;;;;;;7.13;3.20;;;;;;;;;;5049750;28;20057;-70
2022/03/02 08:02:46;;;;;;;8.85;3.35;;;;;;;;;;4993561;28;20061;-69
2022/03/02 08:05:21;;;;;;;8.52;3.33;;;;;;;;;;4970529;28;20054;-70
2022/03/02 08:07:53;;;;;;;9.00;3.60;;;;;;;;;;4908152;28;20479;-68
2022/03/02 08:10:27;;;;;;;8.85;3.28;;;;;;;;;;4970463;28;20900;-70
2022/03/02 08:12:58;;;;;;;6.25;3.35;;;;;;;;;;4970759;28;20055;-69
2022/03/02 08:15:30;;;;;;;7.40;3.40;;;;;;;;;;4970574;28;20058;-68
2022/03/02 08:18:05;;;;;;;8.05;3.78;;;;;;;;;;4951404;29;20055;-70
2022/03/02 08:21:00;;;;;;;12.95;3.83;;;;;;;;;;4968445;28;20063;-70
2022/03/02 08:23:38;;;;;;;7.45;3.22;;;;;;;;;;4988347;28;20065;-70
2022/03/02 08:26:09;;;;;;;12.73;3.58;;;;;;;;;;4990070;28;20133;-68
2022/03/02 08:28:44;;;;;;;7.75;4.03;;;;;;;;;;4990243;28;20058;-71
2022/03/02 08:31:15;;;;;;;11.43;3.35;;;;;;;;;;4974035;28;20058;-70
2022/03/02 08:33:47;;;;;;;6.45;3.40;;;;;;;;;;4973679;28;20093;-71
2022/03/02 08:36:22;;;;;;;8.52;3.35;;;;;;;;;;4989975;28;20062;-69
2022/03/02 08:38:57;;;;;;;7.95;3.20;;;;;;;;;;4989830;28;20042;-70
2022/03/02 08:41:32;;;;;;;6.97;3.50;;;;;;;;;;5008648;28;20058;-70
2022/03/02 08:44:04;;;;;;;6.15;3.42;;;;;;;;;;5047605;28;20179;-70
2022/03/02 08:46:34;;;;;;;10.13;3.15;;;;;;;;;;5048841;28;20064;-69
2022/03/02 08:49:05;;;;;;;9.30;3.78;;;;;;;;;;5067197;28;20057;-69
2022/03/02 08:51:39;;;;;;;9.25;3.67;;;;;;;;;;5068960;28;20048;-68
2022/03/02 08:54:14;;;;;;;7.40;4.00;;;;;;;;;;5068842;28;20055;-69
2022/03/02 08:56:46;;;;;;;8.15;3.33;;;;;;;;;;5050199;28;20048;-69
2022/03/02 08:59:21;;;;;;;5.28;3.40;;;;;;;;;;5052574;28;20052;-70
2022/03/02 09:01:56;;;;;;;9.30;3.53;;;;;;;;;;5068853;28;20536;-69
2022/03/02 09:04:30;;;;;;;7.97;3.33;;;;;;;;;;5068566;28;20048;-69
2022/03/02 09:07:03;;;;;;;7.28;3.53;;;;;;;;;;5036572;28;20056;-69
2022/03/02 09:09:35;;;;;;;6.75;3.25;;;;;;;;;;5068643;28;20084;-68
2022/03/02 09:12:08;;;;;;;7.63;3.40;;;;;;;;;;5068729;28;20056;-70
2022/03/02 09:14:40;;;;;;;5.00;3.20;;;;;;;;;;5036188;28;20055;-69
2022/03/02 09:17:11;;;;;;;9.15;3.30;;;;;;;;;;5068814;28;20480;-69
2022/03/02 09:19:46;;;;;;;8.60;3.20;;;;;;;;;;5068558;28;20060;-69
2022/03/02 09:22:24;;;;;;;8.90;3.75;;;;;;;;;;4988857;28;20063;-68
2022/03/02 09:24:57;;;;;;;6.40;3.28;;;;;;;;;;5028309;28;20053;-70
2022/03/02 09:27:31;;;;;;;9.82;3.80;;;;;;;;;;4981156;28;20061;-70
2022/03/02 09:30:12;;;;;;;7.20;3.55;;;;;;;;;;5028666;28;20579;-69
2022/03/02 09:32:45;;;;;;;6.53;3.33;;;;;;;;;;5028295;28;20532;-69
2022/03/02 09:35:16;;;;;;;7.13;3.72;;;;;;;;;;5063120;28;20083;-70
2022/03/02 09:37:49;;;;;;;10.55;3.63;;;;;;;;;;5068348;28;20056;-70
2022/03/02 09:40:28;;;;;;;9.48;3.88;;;;;;;;;;5068346;28;20144;-69
2022/03/02 09:43:08;;;;;;;9.05;3.42;;;;;;;;;;5068113;28;20412;-69
2022/03/02 09:45:43;;;;;;;11.68;3.50;;;;;;;;;;5035612;28;20053;-69
2022/03/02 09:48:41;;;;;;;8.57;3.70;;;;;;;;;;5068120;28;20045;-69
2022/03/02 09:51:13;;;;;;;7.85;4.07;;;;;;;;;;5066611;28;20048;-69
2022/03/02 09:53:48;;;;;;;8.13;3.40;;;;;;;;;;5052018;28;20048;-70
2022/03/02 09:56:24;;;;;;;5.60;3.25;;;;;;;;;;5068154;28;20245;-70
2022/03/02 09:58:54;;;;;;;8.98;3.88;;;;;;;;;;5035295;28;20048;-69
2022/03/02 10:01:26;;;;;;;8.52;3.40;;;;;;;;;;5069499;28;20044;-69
2022/03/02 10:04:22;;;;;;;7.03;3.33;;;;;;;;;;5021888;28;20048;-70
2022/03/02 10:09:51;;;;;;;8.88;3.60;;;;;;;;;;5090620;28;20484;-69
2022/03/02 10:12:23;;;;;;;11.80;4.63;;;;;;;;;;5089777;28;20051;-71
2022/03/02 10:14:56;;;;;;;7.13;3.55;;;;;;;;;;5108060;28;20376;-69
2022/03/02 10:17:34;;;;;;;13.95;4.20;;;;;;;;;;5108667;28;20052;-70
2022/03/02 10:20:22;;;;;;;9.43;3.53;;;;;;;;;;5029579;28;20054;-70
2022/03/02 10:23:21;;;;;;;11.43;3.85;;;;;;;;;;5112432;28;20048;-68
2022/03/02 10:26:04;;;;;;;6.65;4.00;;;;;;;;;;5112338;28;20079;-70
2022/03/02 10:28:45;;;;;;;7.80;4.03;;;;;;;;;;5078664;28;20083;-69
2022/03/02 10:31:29;;;;;;;7.25;3.33;;;;;;;;;;5062082;28;20052;-70
2022/03/02 10:34:10;;;;;;;8.00;3.67;;;;;;;;;;5111982;28;20052;-70
2022/03/02 10:36:45;;;;;;;7.03;3.33;;;;;;;;;;5112231;28;20059;-69
2022/03/02 10:39:41;;;;;;;6.25;3.67;;;;;;;;;;5061509;28;20535;-69
2022/03/02 10:42:24;;;;;;;6.55;3.15;;;;;;;;;;5070795;28;20063;-69
2022/03/02 10:45:16;;;;;;;6.55;3.97;;;;;;;;;;5053429;28;20052;-71
2022/03/02 10:48:01;;;;;;;7.68;3.67;;;;;;;;;;5030913;28;20569;-70
2022/03/02 10:50:37;;;;;;;9.82;3.80;;;;;;;;;;5031345;28;20077;-69
2022/03/02 10:53:16;;;;;;;7.28;3.30;;;;;;;;;;5031305;28;20062;-70
2022/03/02 10:55:49;;;;;;;5.05;2.95;;;;;;;;;;5031163;28;20056;-70
2022/03/02 10:58:20;;;;;;;7.13;2.25;;;;;;;;;;5046964;28;20064;-71
2022/03/02 11:00:51;;;;;;;5.70;2.72;;;;;;;;;;5050555;28;20053;-69
2022/03/02 11:03:22;;;;;;;9.02;4.13;;;;;;;;;;5050985;28;20060;-70
2022/03/02 11:05:55;;;;;;;5.72;3.42;;;;;;;;;;5050664;28;20390;-69
2022/03/02 11:08:29;;;;;;;4.00;2.35;;;;;;;;;;5050874;28;20049;-68
2022/03/02 11:11:01;;;;;;;4.78;2.28;;;;;;;;;;5050882;28;20056;-68
2022/03/02 11:13:32;;;;;;;3.80;1.90;;;;;;;;;;5050720;28;20053;-68
2022/03/02 11:16:07;;;;;;;5.50;1.80;;;;;;;;;;5070405;28;20053;-67
2022/03/02 11:18:48;;;;;;;4.95;2.13;;;;;;;;;;5037471;28;20063;-67
2022/03/02 11:21:30;;;;;;;3.65;2.33;;;;;;;;;;5038199;28;20056;-68
2022/03/02 11:24:04;;;;;;;4.50;1.92;;;;;;;;;;5054378;28;20048;-68
2022/03/02 11:26:39;;;;;;;4.32;2.00;;;;;;;;;;5018480;28;20057;-68
2022/03/02 11:29:15;;;;;;;3.95;1.75;;;;;;;;;;5002612;28;20053;-67
2022/03/02 11:31:54;;;;;;;6.32;1.67;;;;;;;;;;5050048;28;20060;-68
2022/03/02 11:34:28;;;;;;;3.80;2.03;;;;;;;;;;5033661;28;20497;-68
2022/03/02 11:37:07;;;;;;;4.53;1.85;;;;;;;;;;5050159;28;20444;-68
2022/03/02 11:39:48;;;;;;;10.02;2.58;;;;;;;;;;5051808;28;20444;-68
2022/03/02 11:42:31;;;;;;;3.58;1.92;;;;;;;;;;5070096;28;20095;-67
2022/03/02 11:45:04;;;;;;;3.58;2.10;;;;;;;;;;5070067;28;20083;-69
2022/03/02 11:47:53;;;;;;;4.85;2.70;;;;;;;;;;5069971;28;20061;-69
2022/03/02 11:50:24;;;;;;;6.38;2.40;;;;;;;;;;5070184;28;20052;-69
2022/03/02 11:52:56;;;;;;;6.28;2.03;;;;;;;;;;5037901;28;20056;-68
2022/03/02 11:55:27;;;;;;;5.13;2.72;;;;;;;;;;5036562;28;20071;-68
2022/03/02 11:57:59;;;;;;;6.13;3.05;;;;;;;;;;5029628;28;20054;-69
2022/03/02 12:00:29;;;;;;;6.93;2.97;;;;;;;;;;5029991;28;20553;-68
2022/03/02 12:03:08;;;;;;;5.50;3.42;;;;;;;;;;5029656;28;20057;-70
2022/03/02 12:05:41;;;;;;;6.05;3.08;;;;;;;;;;5029915;28;20054;-68
2022/03/02 12:08:16;;;;;;;4.78;2.90;;;;;;;;;;5030073;28;20072;-68
2022/03/02 12:10:57;;;;;;;6.15;2.85;;;;;;;;;;5029694;28;20057;-69
2022/03/02 12:13:29;;;;;;;6.65;3.67;;;;;;;;;;5029606;28;20065;-69
2022/03/02 12:16:00;;;;;;;10.00;2.90;;;;;;;;;;5029482;28;20053;-69
2022/03/02 12:18:39;;;;;;;5.28;2.97;;;;;;;;;;5037794;28;20527;-69
2022/03/02 12:21:17;;;;;;;8.20;3.33;;;;;;;;;;5053590;28;20061;-69
2022/03/02 12:23:53;;;;;;;7.85;3.45;;;;;;;;;;5036935;28;20615;-69
2022/03/02 12:26:26;;;;;;;6.90;2.63;;;;;;;;;;5069347;28;20080;-69
2022/03/02 12:28:59;;;;;;;4.10;2.70;;;;;;;;;;5047656;28;20048;-69
2022/03/02 12:31:32;;;;;;;8.43;3.30;;;;;;;;;;5068909;28;20049;-66
2022/03/02 12:34:16;;;;;;;5.78;3.75;;;;;;;;;;5069243;28;20078;-67
2022/03/02 12:36:46;;;;;;;8.10;4.15;;;;;;;;;;5069074;28;20051;-68
2022/03/02 12:39:20;;;;;;;6.25;3.92;;;;;;;;;;5052989;28;20053;-69
2022/03/02 12:41:51;;;;;;;6.80;4.50;;;;;;;;;;5048749;28;20080;-69
2022/03/02 12:44:24;;;;;;;6.60;4.15;;;;;;;;;;5049225;28;20049;-68
2022/03/02 12:46:59;;;;;;;7.25;3.97;;;;;;;;;;5048876;28;20060;-69
2022/03/02 12:49:32;;;;;;;9.00;4.25;;;;;;;;;;5049054;28;20049;-69
2022/03/02 12:52:04;;;;;;;6.35;4.50;;;;;;;;;;5009086;28;20046;-68
2022/03/02 12:54:41;;;;;;;56.83;21.33;;;;;;;;;;4957015;28;20438;-71
2022/03/02 12:57:14;;;;;;;14.25;8.02;;;;;;;;;;4973715;28;20058;-71
2022/03/02 12:59:48;;;;;;;8.32;4.20;;;;;;;;;;4989548;28;20054;-69
2022/03/02 13:02:27;;;;;;;8.40;3.80;;;;;;;;;;4989672;28;20046;-68
2022/03/02 13:05:10;;;;;;;8.57;4.13;;;;;;;;;;4989531;28;20043;-67
2022/03/02 13:08:05;;;;;;;7.35;3.42;;;;;;;;;;4977398;28;20045;-69
2022/03/02 13:10:45;;;;;;;7.53;3.63;;;;;;;;;;4976430;28;20049;-70
2022/03/02 13:13:39;;;;;;;7.40;4.13;;;;;;;;;;5008895;28;20524;-68
2022/03/02 13:16:22;;;;;;;7.50;4.00;;;;;;;;;;4976478;28;20053;-66
2022/03/02 13:18:58;;;;;;;5.65;3.15;;;;;;;;;;5008781;28;20062;-65
2022/03/02 13:21:35;;;;;;;5.45;3.35;;;;;;;;;;5009035;28;20061;-66
2022/03/02 13:24:16;;;;;;;7.32;3.05;;;;;;;;;;5008946;28;20062;-66
2022/03/02 13:27:05;;;;;;;6.47;3.00;;;;;;;;;;5009180;28;20084;-66
2022/03/02 13:30:13;;;;;;;7.78;2.75;;;;;;;;;;5026796;28;20064;-66
2022/03/02 13:32:47;;;;;;;5.75;2.60;;;;;;;;;;4994654;28;20058;-65
2022/03/02 13:35:54;;;;;;;5.00;2.40;;;;;;;;;;5002209;28;20526;-66
2022/03/02 13:38:41;;;;;;;4.72;2.30;;;;;;;;;;4989155;28;20050;-66
2022/03/02 13:41:41;;;;;;;3.75;1.80;;;;;;;;;;4941001;28;20714;-66
2022/03/02 13:44:44;;;;;;;4.10;1.77;;;;;;;;;;4988858;28;20061;-66
2022/03/02 13:47:23;;;;;;;4.82;2.45;;;;;;;;;;4972625;28;20554;-66
2022/03/02 13:50:04;;;;;;;4.97;2.05;;;;;;;;;;4977714;28;20061;-67
2022/03/02 13:52:34;;;;;;;6.15;2.40;;;;;;;;;;4952723;28;20054;-66
2022/03/02 13:55:13;;;;;;;7.35;2.47;;;;;;;;;;4924765;28;20054;-66
2022/03/02 13:58:26;;;;;;;4.13;2.40;;;;;;;;;;4951326;28;20447;-68
2022/03/02 14:01:17;;;;;;;3.60;2.08;;;;;;;;;;4942341;28;20490;-66
2022/03/02 14:04:00;;;;;;;8.48;2.03;;;;;;;;;;4973208;28;20066;-67
2022/03/02 14:06:33;;;;;;;5.72;2.15;;;;;;;;;;4980698;28;20061;-67
2022/03/02 14:09:06;;;;;;;4.82;2.10;;;;;;;;;;4976399;28;20065;-67
2022/03/02 14:11:57;;;;;;;5.45;1.80;;;;;;;;;;4992740;28;20058;-67
2022/03/02 14:14:32;;;;;;;3.15;2.42;;;;;;;;;;4992414;28;20061;-71
2022/03/02 14:17:05;;;;;;;4.43;1.60;;;;;;;;;;4992431;28;20325;-69
2022/03/02 14:19:37;;;;;;;2.70;1.80;;;;;;;;;;4992551;28;20086;-74
2022/03/02 14:22:21;;;;;;;6.05;2.03;;;;;;;;;;4992778;28;20053;-70
2022/03/02 14:24:52;;;;;;;5.53;1.98;;;;;;;;;;5020699;28;20060;-67
2022/03/02 14:27:32;;;;;;;9.80;2.25;;;;;;;;;;5002355;28;20107;-65
2022/03/02 14:30:11;;;;;;;4.45;1.90;;;;;;;;;;5059283;28;20052;-66
2022/03/02 14:32:44;;;;;;;4.38;2.25;;;;;;;;;;5085490;28;20058;-65
2022/03/02 14:35:17;;;;;;;3.97;1.80;;;;;;;;;;5114309;28;20042;-67
2022/03/02 14:37:59;;;;;;;4.30;1.63;;;;;;;;;;5078527;28;20059;-65
2022/03/02 14:40:34;;;;;;;2.80;1.90;;;;;;;;;;5038448;28;20048;-66
2022/03/02 14:43:09;;;;;;;2.83;1.60;;;;;;;;;;5071438;28;20064;-66
2022/03/02 14:45:44;;;;;;;3.75;1.48;;;;;;;;;;5071333;28;20067;-66
2022/03/02 14:48:26;;;;;;;4.65;1.25;;;;;;;;;;5071217;28;20083;-65
2022/03/02 14:50:59;;;;;;;1.75;1.25;;;;;;;;;;5000732;28;20049;-66
2022/03/02 14:53:37;;;;;;;3.05;1.20;;;;;;;;;;5031480;28;20053;-66
2022/03/02 14:56:11;;;;;;;1.83;0.98;;;;;;;;;;5030726;28;20061;-66
2022/03/02 14:58:45;;;;;;;2.45;1.08;;;;;;;;;;5031341;28;20065;-67
2022/03/02 15:01:24;;;;;;;3.00;1.20;;;;;;;;;;4983233;28;20498;-69
2022/03/02 15:04:03;;;;;;;4.07;1.27;;;;;;;;;;4998062;28;20064;-65
2022/03/02 15:06:37;;;;;;;3.50;1.10;;;;;;;;;;5030710;28;20064;-69
2022/03/02 15:09:13;;;;;;;1.60;0.90;;;;;;;;;;5031092;28;20058;-69
2022/03/02 15:11:50;;;;;;;4.18;0.80;;;;;;;;;;5030941;28;20053;-71
2022/03/02 15:17:14;;;;;;;1.05;0.50;;;;;;;;;;4995578;28;20503;-69
2022/03/02 15:19:57;;;;;;;1.40;0.63;;;;;;;;;;4997610;28;20053;-71
2022/03/02 15:22:28;;;;;;;0.98;0.50;;;;;;;;;;5030661;28;20056;-70
2022/03/02 15:25:01;;;;;;;1.33;0.70;;;;;;;;;;4998322;28;20433;-70
2022/03/02 15:27:33;;;;;;;1.65;0.65;;;;;;;;;;4993464;28;20058;-70
2022/03/02 15:30:15;;;;;;;1.00;0.70;;;;;;;;;;5030365;28;20413;-67
2022/03/02 15:32:47;;;;;;;1.48;0.52;;;;;;;;;;4965880;28;20060;-66
2022/03/02 15:35:24;;;;;;;0.65;0.50;;;;;;;;;;5030358;28;20049;-71